createdAt,value
2018-07-21T00:03:00.134Z,53.42
2018-07-21T00:08:04.876Z,53.66
2018-07-21T00:13:09.672Z,54.50
2018-07-21T00:18:14.514Z,56.89
2018-07-21T00:23:19.739Z,56.63
2018-07-21T00:28:36.356Z,57.66
2018-07-21T00:34:06.183Z,56.98
2018-07-21T00:39:15.396Z,56.40
2018-07-21T00:44:26.434Z,56.01
2018-07-21T00:49:33.358Z,55.38
2018-07-21T00:54:38.067Z,56.38
2018-07-21T00:59:42.845Z,55.93
2018-07-21T01:04:47.587Z,56.74
2018-07-21T01:09:52.342Z,57.37
2018-07-21T01:14:57.033Z,56.34
2018-07-21T01:20:01.762Z,58.04
2018-07-21T01:25:08.170Z,56.67
2018-07-21T01:30:12.929Z,57.61
2018-07-21T01:35:17.612Z,58.26
2018-07-21T01:40:22.292Z,60.47
2018-07-21T01:45:27.108Z,61.77
2018-07-21T01:50:31.818Z,61.50
2018-07-21T01:55:36.555Z,62.51
2018-07-21T02:00:41.327Z,63.28
2018-07-21T02:05:46.069Z,62.61
2018-07-21T02:10:50.766Z,62.81
2018-07-21T02:15:55.417Z,63.58
2018-07-21T02:21:00.116Z,63.18
2018-07-21T02:26:04.929Z,63.16
2018-07-21T02:31:09.760Z,62.39
2018-07-21T02:36:14.581Z,63.17
2018-07-21T02:41:19.307Z,63.82
2018-07-21T02:46:24.041Z,64.90
2018-07-21T02:51:28.833Z,63.56
2018-07-21T02:56:33.487Z,62.33
2018-07-21T03:01:38.260Z,62.41
2018-07-21T03:06:43.015Z,64.64
2018-07-21T03:11:47.755Z,65.75
2018-07-21T03:16:52.081Z,64.68
2018-07-21T03:21:56.509Z,64.15
2018-07-21T03:27:01.219Z,64.41
2018-07-21T03:32:05.911Z,64.14
2018-07-21T03:37:10.253Z,62.43
2018-07-21T03:42:14.985Z,62.32
2018-07-21T03:47:20.282Z,63.07
2018-07-21T03:52:24.989Z,60.99
2018-07-21T03:57:29.679Z,60.82
2018-07-21T04:02:34.355Z,60.81
2018-07-21T04:07:39.073Z,59.55
2018-07-21T04:12:43.771Z,59.02
2018-07-21T04:17:48.434Z,55.89
2018-07-21T04:22:53.192Z,54.67
2018-07-21T04:27:58.000Z,57.69
2018-07-21T04:33:02.700Z,58.19
2018-07-21T04:38:07.745Z,59.90
2018-07-21T04:43:12.488Z,58.99
2018-07-21T04:48:17.423Z,59.30
2018-07-21T04:53:22.292Z,59.13
2018-07-21T04:58:27.144Z,58.29
2018-07-21T05:03:31.960Z,58.98
2018-07-21T05:08:36.618Z,58.54
2018-07-21T05:13:41.344Z,60.02
2018-07-21T05:18:46.348Z,58.36
2018-07-21T05:23:51.083Z,57.91
2018-07-21T05:28:55.810Z,56.89
2018-07-21T05:34:00.606Z,57.55
2018-07-21T05:39:07.394Z,58.48
2018-07-21T05:44:12.148Z,56.96
2018-07-21T05:49:16.916Z,57.54
2018-07-21T05:54:21.688Z,54.88
2018-07-21T05:59:26.534Z,54.64
2018-07-21T06:04:31.290Z,54.79
2018-07-21T06:09:35.991Z,55.66
2018-07-21T06:14:40.699Z,56.20
2018-07-21T06:19:45.467Z,56.17
2018-07-21T06:24:50.188Z,56.82
2018-07-21T06:29:55.045Z,55.12
2018-07-21T06:34:59.803Z,54.83
2018-07-21T06:40:05.036Z,53.40
2018-07-21T06:45:09.803Z,54.08
2018-07-21T06:50:14.517Z,53.54
2018-07-21T06:55:19.530Z,53.31
2018-07-21T07:00:24.304Z,53.23
2018-07-21T07:05:29.094Z,52.80
2018-07-21T07:10:34.050Z,52.59
2018-07-21T07:15:38.698Z,52.32
2018-07-21T07:20:43.435Z,51.41
2018-07-21T07:25:48.205Z,50.94
2018-07-21T07:30:52.945Z,50.52
2018-07-21T07:35:57.719Z,51.27
2018-07-21T07:41:02.427Z,50.99
2018-07-21T07:46:07.259Z,50.11
2018-07-21T07:51:12.091Z,51.74
2018-07-21T07:56:19.849Z,53.00
2018-07-21T08:01:24.606Z,52.32
2018-07-21T08:06:29.399Z,52.42
2018-07-21T08:11:34.102Z,52.41
2018-07-21T08:16:38.783Z,51.92
2018-07-21T08:21:44.027Z,50.67
2018-07-21T08:26:48.739Z,52.34
2018-07-21T08:31:53.606Z,51.37
2018-07-21T08:36:59.271Z,52.62
2018-07-21T08:42:04.075Z,52.90
2018-07-21T08:47:12.464Z,51.75
2018-07-21T08:52:17.191Z,50.62
2018-07-21T08:57:21.864Z,50.93
2018-07-21T09:02:26.621Z,50.47
2018-07-21T09:07:31.417Z,50.42
2018-07-21T09:12:36.190Z,49.23
2018-07-21T09:17:40.980Z,51.39
2018-07-21T09:22:45.736Z,52.85
2018-07-21T09:27:50.536Z,52.33
2018-07-21T09:32:55.333Z,51.20
2018-07-21T09:38:00.151Z,52.55
2018-07-21T09:43:04.829Z,52.96
2018-07-21T09:48:09.723Z,50.68
2018-07-21T09:53:14.422Z,49.38
2018-07-21T09:58:19.120Z,48.08
2018-07-21T10:03:23.900Z,47.23
2018-07-21T10:08:28.639Z,46.41
2018-07-21T10:13:33.287Z,47.94
2018-07-21T10:18:38.012Z,47.45
2018-07-21T10:23:42.792Z,45.09
2018-07-21T10:28:52.627Z,46.85
2018-07-21T10:33:57.362Z,45.98
2018-07-21T10:39:02.289Z,46.84
2018-07-21T10:44:07.083Z,44.57
2018-07-21T10:49:11.834Z,46.57
2018-07-21T10:54:16.605Z,47.47
2018-07-21T10:59:21.661Z,49.30
2018-07-21T11:04:26.367Z,48.30
2018-07-21T11:09:31.237Z,50.91
2018-07-21T11:14:36.200Z,50.42
2018-07-21T11:19:40.892Z,51.16
2018-07-21T11:24:45.612Z,51.99
2018-07-21T11:29:50.399Z,51.52
2018-07-21T11:34:55.132Z,51.95
2018-07-21T11:40:00.086Z,50.88
2018-07-21T11:45:05.072Z,50.51
2018-07-21T11:50:10.332Z,50.98
2018-07-21T11:55:15.204Z,49.29
2018-07-21T12:00:19.649Z,46.96
2018-07-21T12:05:24.503Z,46.97
2018-07-21T12:10:29.319Z,46.16
2018-07-21T12:15:34.030Z,45.67
2018-07-21T12:20:38.895Z,45.58
2018-07-21T12:25:46.030Z,45.97
2018-07-21T12:30:50.971Z,45.30
2018-07-21T12:35:55.367Z,45.49
2018-07-21T12:41:00.290Z,46.15
2018-07-21T12:46:05.386Z,47.67
2018-07-21T12:51:11.035Z,50.41
2018-07-21T12:56:15.854Z,50.44
2018-07-21T13:01:20.553Z,51.36
2018-07-21T13:06:25.312Z,52.51
2018-07-21T13:11:30.087Z,52.57
2018-07-21T13:16:35.089Z,51.94
2018-07-21T13:21:39.821Z,50.71
2018-07-21T13:26:44.654Z,50.74
2018-07-21T13:31:49.586Z,51.15
2018-07-21T13:36:54.436Z,50.06
2018-07-21T13:41:59.154Z,50.18
2018-07-21T13:47:03.830Z,53.24
2018-07-21T13:52:08.715Z,55.08
2018-07-21T13:57:13.398Z,55.50
2018-07-21T14:02:18.575Z,54.08
2018-07-21T14:07:23.355Z,54.63
2018-07-21T14:12:28.137Z,51.03
2018-07-21T14:17:32.894Z,51.75
2018-07-21T14:22:39.410Z,51.13
2018-07-21T14:27:44.249Z,50.78
2018-07-21T14:32:49.132Z,51.74
2018-07-21T14:37:53.840Z,50.84
2018-07-21T14:42:58.570Z,52.95
2018-07-21T14:48:03.465Z,50.47
2018-07-21T14:53:08.548Z,51.07
2018-07-21T14:58:13.322Z,49.91
2018-07-21T15:03:18.116Z,49.27
2018-07-21T15:08:22.892Z,49.25
2018-07-21T15:13:27.646Z,48.98
2018-07-21T15:18:32.387Z,49.52
2018-07-21T15:23:37.235Z,49.10
2018-07-21T15:28:42.068Z,48.21
2018-07-21T15:33:46.885Z,49.10
2018-07-21T15:38:51.618Z,49.31
2018-07-21T15:43:56.643Z,47.49
2018-07-21T15:49:08.729Z,47.56
2018-07-21T15:54:13.426Z,48.19
2018-07-21T15:59:18.175Z,49.27
2018-07-21T16:04:22.925Z,49.66
2018-07-21T16:09:27.666Z,50.64
2018-07-21T16:14:32.487Z,50.53
2018-07-21T16:19:37.217Z,51.57
2018-07-21T16:24:42.153Z,51.85
2018-07-21T16:29:47.179Z,54.02
2018-07-21T16:34:51.951Z,54.14
2018-07-21T16:39:56.692Z,55.80
2018-07-21T16:45:01.389Z,56.07
2018-07-21T16:50:06.609Z,56.03
2018-07-21T16:55:11.473Z,56.41
2018-07-21T17:00:16.365Z,56.12
2018-07-21T17:05:21.271Z,55.56
2018-07-21T17:10:26.079Z,56.37
2018-07-21T17:15:30.825Z,58.37
2018-07-21T17:20:35.554Z,57.96
2018-07-21T17:25:40.331Z,59.82
2018-07-21T17:30:45.107Z,59.65
2018-07-21T17:35:49.923Z,59.52
2018-07-21T17:40:54.707Z,59.79
2018-07-21T17:45:59.487Z,60.90
2018-07-21T17:51:04.249Z,61.21
2018-07-21T17:56:09.049Z,61.75
2018-07-21T18:01:13.780Z,62.64
2018-07-21T18:06:18.482Z,61.78
2018-07-21T18:11:23.086Z,62.64
2018-07-21T18:16:27.950Z,63.02
2018-07-21T18:21:32.348Z,63.55
2018-07-21T18:26:37.174Z,63.89
2018-07-21T18:31:41.994Z,65.12
2018-07-21T18:36:46.703Z,65.43
2018-07-21T18:41:51.451Z,65.17
2018-07-21T18:46:56.279Z,65.09
2018-07-21T18:52:00.998Z,65.09
2018-07-21T18:57:05.810Z,65.08
2018-07-21T19:02:10.608Z,66.28
2018-07-21T19:07:15.322Z,65.94
2018-07-21T19:12:25.284Z,67.35
2018-07-21T19:17:30.733Z,66.62
2018-07-21T19:22:35.451Z,67.36
2018-07-21T19:27:40.345Z,67.86
2018-07-21T19:32:50.328Z,68.18
2018-07-21T19:37:55.109Z,69.42
2018-07-21T19:42:59.937Z,70.78
2018-07-21T19:48:04.669Z,71.20
2018-07-21T19:53:09.594Z,72.59
2018-07-21T19:58:14.401Z,74.39
2018-07-21T20:03:19.013Z,75.77
2018-07-21T20:08:23.855Z,78.22
2018-07-21T20:13:28.882Z,80.62
2018-07-21T20:18:33.759Z,80.86
2018-07-21T20:23:38.455Z,81.58
2018-07-21T20:28:43.282Z,81.33
2018-07-21T20:33:48.113Z,81.02
2018-07-21T20:38:52.898Z,81.13
2018-07-21T20:43:57.680Z,81.78
2018-07-21T20:49:02.480Z,82.69
2018-07-21T20:54:07.257Z,81.55
2018-07-21T20:59:11.936Z,82.35
2018-07-21T21:04:16.688Z,81.59
2018-07-21T21:09:21.368Z,82.80
2018-07-21T21:14:26.082Z,82.28
2018-07-21T21:19:30.846Z,81.80
2018-07-21T21:24:35.300Z,82.85
2018-07-21T21:29:40.007Z,82.79
2018-07-21T21:34:44.828Z,82.42
2018-07-21T21:39:49.594Z,83.76
2018-07-21T21:44:54.362Z,83.07
2018-07-21T21:49:59.106Z,83.54
2018-07-21T21:55:03.643Z,85.17
2018-07-21T22:00:10.699Z,86.06
2018-07-21T22:05:15.456Z,85.95
2018-07-21T22:10:20.327Z,85.00
2018-07-21T22:15:25.084Z,84.57
2018-07-21T22:20:29.823Z,85.73
2018-07-21T22:25:34.589Z,84.67
2018-07-21T22:30:39.350Z,85.64
2018-07-21T22:35:44.108Z,85.47
2018-07-21T22:40:48.900Z,85.30
2018-07-21T22:45:53.783Z,85.13
2018-07-21T22:50:58.692Z,85.43
2018-07-21T22:56:03.086Z,86.45
2018-07-21T23:01:07.902Z,86.42
2018-07-21T23:06:12.686Z,86.45
2018-07-21T23:11:17.447Z,86.61
2018-07-21T23:16:22.215Z,85.44
2018-07-21T23:21:27.252Z,86.53
2018-07-21T23:26:32.050Z,86.07
2018-07-21T23:31:36.800Z,86.83
2018-07-21T23:36:41.560Z,85.95
2018-07-21T23:41:46.386Z,86.35
2018-07-21T23:46:51.089Z,87.33
2018-07-21T23:51:55.907Z,87.21
2018-07-21T23:57:00.635Z,86.67
